DEFHY EDRT-EDFH
Flight info
| Callsign | DEFHY |
|---|---|
| Flight time | N/A |
| Altitude | 5000 |
| Route | ROPUV/N170F070 IFR DCT |
| Aircraft | SR22/L-SDGRY/S |
Departure
| Time | 2026-04-18 18:38 |
|---|---|
| Airport | Trier-Föhren Airfield (EDRT) |
Arrival
| Time | N/A |
|---|---|
| Airport | Frankfurt-Hahn Airport (EDFH) |
| Time | Latitude | Longitude | Altitude | Speed | Heading |
|---|---|---|---|---|---|
| 2026-04-18 18:35 | 49.86269 | 6.78796 | 671 ft | 0 kts | 308° |
| 2026-04-18 18:35 | 49.86270 | 6.78794 | 671 ft | 0 kts | 313° |
| 2026-04-18 18:35 | 49.86279 | 6.78793 | 671 ft | 2 kts | 349° |
| 2026-04-18 18:36 | 49.86289 | 6.78767 | 671 ft | 6 kts | 250° |
| 2026-04-18 18:36 | 49.86286 | 6.78723 | 671 ft | 2 kts | 271° |
| 2026-04-18 18:36 | 49.86287 | 6.78705 | 670 ft | 0 kts | 281° |
| 2026-04-18 18:37 | 49.86293 | 6.78666 | 672 ft | 0 kts | 290° |
| 2026-04-18 18:37 | 49.86338 | 6.78669 | 672 ft | 26 kts | 41° |
| 2026-04-18 18:38 | 49.86634 | 6.79101 | 703 ft | 82 kts | 39° |
| 2026-04-18 18:38 | 49.87054 | 6.79657 | 1050 ft | 79 kts | 22° |
| 2026-04-18 18:38 | 49.87599 | 6.79646 | 1341 ft | 84 kts | 334° |
| 2026-04-18 18:38 | 49.88038 | 6.79036 | 1632 ft | 88 kts | 312° |
| 2026-04-18 18:39 | 49.88441 | 6.78325 | 1951 ft | 88 kts | 313° |
| 2026-04-18 18:39 | 49.88903 | 6.77727 | 2250 ft | 88 kts | 331° |
| 2026-04-18 18:39 | 49.89440 | 6.77263 | 2554 ft | 89 kts | 333° |
| 2026-04-18 18:39 | 49.89982 | 6.76794 | 2860 ft | 91 kts | 333° |
| 2026-04-18 18:40 | 49.90529 | 6.76321 | 3161 ft | 92 kts | 333° |
| 2026-04-18 18:40 | 49.91090 | 6.75834 | 3466 ft | 93 kts | 332° |
| 2026-04-18 18:40 | 49.91663 | 6.75356 | 3763 ft | 94 kts | 333° |
| 2026-04-18 18:40 | 49.92268 | 6.75041 | 4047 ft | 95 kts | 0° |
| 2026-04-18 18:41 | 49.92912 | 6.75257 | 4347 ft | 95 kts | 13° |
| 2026-04-18 18:41 | 49.93545 | 6.75517 | 4602 ft | 100 kts | 12° |
| 2026-04-18 18:41 | 49.94154 | 6.76118 | 4854 ft | 108 kts | 54° |
| 2026-04-18 18:41 | 49.94307 | 6.77208 | 5194 ft | 105 kts | 99° |
| 2026-04-18 18:42 | 49.93939 | 6.78171 | 5452 ft | 110 kts | 139° |
| 2026-04-18 18:42 | 49.93257 | 6.78972 | 5514 ft | 134 kts | 145° |
| 2026-04-18 18:42 | 49.92422 | 6.79873 | 5505 ft | 156 kts | 146° |
| 2026-04-18 18:42 | 49.91495 | 6.80868 | 5486 ft | 169 kts | 146° |
| 2026-04-18 18:43 | 49.89524 | 6.83004 | 5693 ft | 174 kts | 146° |
| 2026-04-18 18:43 | 49.88540 | 6.84079 | 5875 ft | 170 kts | 146° |
| 2026-04-18 18:43 | 49.87592 | 6.85126 | 6067 ft | 167 kts | 146° |
| 2026-04-18 18:44 | 49.86647 | 6.86180 | 6265 ft | 165 kts | 146° |
| 2026-04-18 18:44 | 49.85710 | 6.87226 | 6462 ft | 164 kts | 146° |
| 2026-04-18 18:44 | 49.84783 | 6.88265 | 6658 ft | 163 kts | 146° |
| 2026-04-18 18:44 | 49.83859 | 6.89304 | 6858 ft | 162 kts | 146° |
| 2026-04-18 18:45 | 49.82925 | 6.90360 | 6965 ft | 168 kts | 146° |
| 2026-04-18 18:45 | 49.81953 | 6.91458 | 6982 ft | 177 kts | 146° |
| 2026-04-18 18:45 | 49.80932 | 6.92601 | 6974 ft | 184 kts | 146° |
| 2026-04-18 18:45 | 49.79860 | 6.93802 | 6813 ft | 194 kts | 146° |
| 2026-04-18 18:46 | 49.78751 | 6.95031 | 6543 ft | 201 kts | 146° |
| 2026-04-18 18:46 | 49.77591 | 6.96312 | 6301 ft | 203 kts | 146° |
| 2026-04-18 18:46 | 49.76584 | 6.97869 | 6089 ft | 204 kts | 125° |
| 2026-04-18 18:46 | 49.75815 | 6.99707 | 5930 ft | 202 kts | 123° |
| 2026-04-18 18:47 | 49.75072 | 7.01575 | 5746 ft | 202 kts | 117° |
| 2026-04-18 18:47 | 49.74986 | 7.03691 | 5548 ft | 202 kts | 73° |
| 2026-04-18 18:47 | 49.75542 | 7.05654 | 5399 ft | 199 kts | 63° |
| 2026-04-18 18:47 | 49.76151 | 7.07576 | 5187 ft | 196 kts | 63° |
| 2026-04-18 18:48 | 49.76750 | 7.09467 | 4978 ft | 192 kts | 63° |
| 2026-04-18 18:48 | 49.77319 | 7.11270 | 4965 ft | 180 kts | 62° |
| 2026-04-18 18:48 | 49.78053 | 7.12731 | 4858 ft | 166 kts | 32° |
| 2026-04-18 18:48 | 49.79101 | 7.13275 | 4714 ft | 157 kts | 8° |
| 2026-04-18 18:49 | 49.80175 | 7.13550 | 4513 ft | 155 kts | 11° |
| 2026-04-18 18:49 | 49.81226 | 7.13950 | 4206 ft | 159 kts | 14° |
| 2026-04-18 18:49 | 49.82292 | 7.14426 | 3944 ft | 159 kts | 21° |
| 2026-04-18 18:49 | 49.83291 | 7.15119 | 3804 ft | 152 kts | 26° |
| 2026-04-18 18:50 | 49.84183 | 7.15888 | 3728 ft | 147 kts | 33° |
| 2026-04-18 18:50 | 49.85050 | 7.16750 | 3608 ft | 152 kts | 32° |
| 2026-04-18 18:50 | 49.85963 | 7.17718 | 3390 ft | 165 kts | 36° |
| 2026-04-18 18:50 | 49.86929 | 7.18720 | 3200 ft | 167 kts | 30° |
| 2026-04-18 18:51 | 49.87914 | 7.19622 | 3034 ft | 164 kts | 31° |
| 2026-04-18 18:51 | 49.88901 | 7.20554 | 2774 ft | 163 kts | 31° |
| 2026-04-18 18:51 | 49.89820 | 7.21441 | 2515 ft | 149 kts | 31° |
| 2026-04-18 18:51 | 49.90646 | 7.22250 | 2243 ft | 134 kts | 31° |
| 2026-04-18 18:52 | 49.91414 | 7.23000 | 2070 ft | 125 kts | 30° |
| 2026-04-18 18:52 | 49.92099 | 7.23666 | 1966 ft | 108 kts | 33° |
| 2026-04-18 18:52 | 49.92621 | 7.24190 | 1888 ft | 77 kts | 25° |
| 2026-04-18 18:52 | 49.93073 | 7.24625 | 1725 ft | 78 kts | 26° |
| 2026-04-18 18:53 | 49.93502 | 7.25043 | 1641 ft | 66 kts | 29° |
| 2026-04-18 18:53 | 49.93969 | 7.25520 | 1704 ft | 94 kts | 28° |
| 2026-04-18 18:53 | 49.94541 | 7.26104 | 1994 ft | 100 kts | 29° |
| 2026-04-18 18:53 | 49.95121 | 7.26684 | 2356 ft | 99 kts | 28° |
| 2026-04-18 18:54 | 49.95696 | 7.27254 | 2707 ft | 99 kts | 29° |
| 2026-04-18 18:54 | 49.96274 | 7.27823 | 3059 ft | 98 kts | 30° |
| 2026-04-18 18:54 | 49.96848 | 7.28385 | 3399 ft | 98 kts | 30° |
| 2026-04-18 18:54 | 49.97428 | 7.28954 | 3720 ft | 100 kts | 30° |